sensor_id;sensor_type;location;lat;lon;timestamp;temperature;humidity
23597;DHT22;40226;50.874;4.394;2023-12-29T00:00:34;10.80;11.90
23597;DHT22;40226;50.874;4.394;2023-12-29T00:03:00;10.80;3.40
23597;DHT22;40226;50.874;4.394;2023-12-29T00:05:25;10.90;3.30
23597;DHT22;40226;50.874;4.394;2023-12-29T00:07:53;10.80;4.10
23597;DHT22;40226;50.874;4.394;2023-12-29T00:10:18;10.80;9.40
23597;DHT22;40226;50.874;4.394;2023-12-29T00:12:44;10.80;17.10
23597;DHT22;40226;50.874;4.394;2023-12-29T00:15:10;10.80;21.80
23597;DHT22;40226;50.874;4.394;2023-12-29T00:17:36;10.70;23.20
23597;DHT22;40226;50.874;4.394;2023-12-29T00:20:04;10.80;22.90
23597;DHT22;40226;50.874;4.394;2023-12-29T00:22:30;10.80;18.70
23597;DHT22;40226;50.874;4.394;2023-12-29T00:24:55;10.80;19.50
23597;DHT22;40226;50.874;4.394;2023-12-29T00:27:21;10.80;17.40
23597;DHT22;40226;50.874;4.394;2023-12-29T00:29:46;10.70;20.80
23597;DHT22;40226;50.874;4.394;2023-12-29T00:32:12;10.80;19.70
23597;DHT22;40226;50.874;4.394;2023-12-29T00:34:38;10.70;20.60
23597;DHT22;40226;50.874;4.394;2023-12-29T00:37:03;10.70;27.70
23597;DHT22;40226;50.874;4.394;2023-12-29T00:39:30;10.70;31.40
23597;DHT22;40226;50.874;4.394;2023-12-29T00:41:56;10.70;37.10
23597;DHT22;40226;50.874;4.394;2023-12-29T00:44:23;10.60;41.20
23597;DHT22;40226;50.874;4.394;2023-12-29T00:46:49;10.60;42.60
23597;DHT22;40226;50.874;4.394;2023-12-29T00:49:15;10.70;47.40
23597;DHT22;40226;50.874;4.394;2023-12-29T00:51:40;10.70;40.20
23597;DHT22;40226;50.874;4.394;2023-12-29T00:54:09;10.70;29.30
23597;DHT22;40226;50.874;4.394;2023-12-29T00:56:34;10.80;26.70
23597;DHT22;40226;50.874;4.394;2023-12-29T00:59:00;10.80;19.80
23597;DHT22;40226;50.874;4.394;2023-12-29T01:01:26;10.80;22.10
23597;DHT22;40226;50.874;4.394;2023-12-29T01:03:51;10.80;19.60
23597;DHT22;40226;50.874;4.394;2023-12-29T01:06:20;10.70;24.70
23597;DHT22;40226;50.874;4.394;2023-12-29T01:08:45;10.80;19.80
23597;DHT22;40226;50.874;4.394;2023-12-29T01:11:11;10.80;17.60
23597;DHT22;40226;50.874;4.394;2023-12-29T01:13:37;10.80;15.00
23597;DHT22;40226;50.874;4.394;2023-12-29T01:16:02;10.80;15.50
23597;DHT22;40226;50.874;4.394;2023-12-29T01:18:28;10.80;15.10
23597;DHT22;40226;50.874;4.394;2023-12-29T01:20:54;10.90;12.50
23597;DHT22;40226;50.874;4.394;2023-12-29T01:23:19;10.90;15.70
23597;DHT22;40226;50.874;4.394;2023-12-29T01:25:45;10.80;19.60
23597;DHT22;40226;50.874;4.394;2023-12-29T01:28:11;10.90;16.90
23597;DHT22;40226;50.874;4.394;2023-12-29T01:30:36;10.80;22.50
23597;DHT22;40226;50.874;4.394;2023-12-29T01:33:02;10.90;16.40
23597;DHT22;40226;50.874;4.394;2023-12-29T01:35:28;10.80;21.00
23597;DHT22;40226;50.874;4.394;2023-12-29T01:37:53;10.80;20.20
23597;DHT22;40226;50.874;4.394;2023-12-29T01:40:22;10.90;21.10
23597;DHT22;40226;50.874;4.394;2023-12-29T01:42:48;10.80;20.40
23597;DHT22;40226;50.874;4.394;2023-12-29T01:45:23;10.90;23.00
23597;DHT22;40226;50.874;4.394;2023-12-29T01:47:50;10.80;27.40
23597;DHT22;40226;50.874;4.394;2023-12-29T01:50:21;10.80;26.90
23597;DHT22;40226;50.874;4.394;2023-12-29T01:52:48;10.80;26.10
23597;DHT22;40226;50.874;4.394;2023-12-29T01:55:18;10.80;25.60
23597;DHT22;40226;50.874;4.394;2023-12-29T01:57:45;10.80;22.40
23597;DHT22;40226;50.874;4.394;2023-12-29T02:00:12;10.80;22.60
23597;DHT22;40226;50.874;4.394;2023-12-29T02:02:39;10.80;24.40
23597;DHT22;40226;50.874;4.394;2023-12-29T02:05:05;10.80;28.10
23597;DHT22;40226;50.874;4.394;2023-12-29T02:07:32;10.80;30.70
23597;DHT22;40226;50.874;4.394;2023-12-29T02:09:58;10.80;36.00
23597;DHT22;40226;50.874;4.394;2023-12-29T02:12:25;10.80;35.40
23597;DHT22;40226;50.874;4.394;2023-12-29T02:14:51;10.80;36.90
23597;DHT22;40226;50.874;4.394;2023-12-29T02:17:22;10.80;28.00
23597;DHT22;40226;50.874;4.394;2023-12-29T02:19:51;10.90;32.60
23597;DHT22;40226;50.874;4.394;2023-12-29T02:22:18;10.90;29.40
23597;DHT22;40226;50.874;4.394;2023-12-29T02:24:48;10.80;29.80
23597;DHT22;40226;50.874;4.394;2023-12-29T02:32:55;10.80;38.00
23597;DHT22;40226;50.874;4.394;2023-12-29T02:35:25;10.70;99.90
23597;DHT22;40226;50.874;4.394;2023-12-29T02:37:53;10.50;99.90
23597;DHT22;40226;50.874;4.394;2023-12-29T02:40:19;10.60;99.90
23597;DHT22;40226;50.874;4.394;2023-12-29T02:42:48;10.60;99.90
23597;DHT22;40226;50.874;4.394;2023-12-29T02:45:15;10.50;99.90
23597;DHT22;40226;50.874;4.394;2023-12-29T02:47:42;10.60;99.90
23597;DHT22;40226;50.874;4.394;2023-12-29T02:50:08;10.60;99.90
23597;DHT22;40226;50.874;4.394;2023-12-29T02:52:34;10.70;94.40
23597;DHT22;40226;50.874;4.394;2023-12-29T02:54:59;10.80;88.80
23597;DHT22;40226;50.874;4.394;2023-12-29T02:57:25;10.80;62.10
23597;DHT22;40226;50.874;4.394;2023-12-29T02:59:51;10.80;58.90
23597;DHT22;40226;50.874;4.394;2023-12-29T03:02:16;10.80;59.70
23597;DHT22;40226;50.874;4.394;2023-12-29T03:04:42;10.80;68.10
23597;DHT22;40226;50.874;4.394;2023-12-29T03:07:09;10.80;68.00
23597;DHT22;40226;50.874;4.394;2023-12-29T03:09:34;10.70;72.40
23597;DHT22;40226;50.874;4.394;2023-12-29T03:12:00;10.70;70.90
23597;DHT22;40226;50.874;4.394;2023-12-29T03:14:26;10.70;73.80
23597;DHT22;40226;50.874;4.394;2023-12-29T03:16:51;10.70;78.10
23597;DHT22;40226;50.874;4.394;2023-12-29T03:19:17;10.60;88.20
23597;DHT22;40226;50.874;4.394;2023-12-29T03:21:43;10.60;89.60
23597;DHT22;40226;50.874;4.394;2023-12-29T03:24:08;10.60;92.40
23597;DHT22;40226;50.874;4.394;2023-12-29T03:26:34;10.70;89.90
23597;DHT22;40226;50.874;4.394;2023-12-29T03:28:59;10.60;91.50
23597;DHT22;40226;50.874;4.394;2023-12-29T03:31:25;10.60;94.30
23597;DHT22;40226;50.874;4.394;2023-12-29T03:33:50;10.60;95.30
23597;DHT22;40226;50.874;4.394;2023-12-29T03:36:16;10.50;96.80
23597;DHT22;40226;50.874;4.394;2023-12-29T03:38:42;10.50;98.40
23597;DHT22;40226;50.874;4.394;2023-12-29T03:41:07;10.50;99.90
23597;DHT22;40226;50.874;4.394;2023-12-29T03:43:33;10.50;99.90
23597;DHT22;40226;50.874;4.394;2023-12-29T03:45:58;10.40;99.90
23597;DHT22;40226;50.874;4.394;2023-12-29T03:48:24;10.40;99.90
23597;DHT22;40226;50.874;4.394;2023-12-29T03:50:50;10.40;99.90
23597;DHT22;40226;50.874;4.394;2023-12-29T03:53:18;10.30;99.90
23597;DHT22;40226;50.874;4.394;2023-12-29T03:55:44;10.40;99.90
23597;DHT22;40226;50.874;4.394;2023-12-29T03:58:10;10.30;99.90
23597;DHT22;40226;50.874;4.394;2023-12-29T04:00:37;10.30;99.90
23597;DHT22;40226;50.874;4.394;2023-12-29T04:03:06;10.30;99.90
23597;DHT22;40226;50.874;4.394;2023-12-29T04:05:32;10.30;99.90
23597;DHT22;40226;50.874;4.394;2023-12-29T04:07:57;10.30;99.90
23597;DHT22;40226;50.874;4.394;2023-12-29T04:10:23;10.30;99.90
23597;DHT22;40226;50.874;4.394;2023-12-29T04:12:49;10.20;99.90
23597;DHT22;40226;50.874;4.394;2023-12-29T04:15:14;10.20;99.90
23597;DHT22;40226;50.874;4.394;2023-12-29T04:17:40;10.20;99.90
23597;DHT22;40226;50.874;4.394;2023-12-29T04:20:06;10.20;99.90
23597;DHT22;40226;50.874;4.394;2023-12-29T04:22:31;10.20;99.90
23597;DHT22;40226;50.874;4.394;2023-12-29T04:24:57;10.10;99.90
23597;DHT22;40226;50.874;4.394;2023-12-29T04:27:23;10.10;99.90
23597;DHT22;40226;50.874;4.394;2023-12-29T04:29:48;10.10;99.90
23597;DHT22;40226;50.874;4.394;2023-12-29T04:32:14;10.10;99.90
23597;DHT22;40226;50.874;4.394;2023-12-29T04:34:40;10.10;99.90
23597;DHT22;40226;50.874;4.394;2023-12-29T04:37:05;10.10;99.90
23597;DHT22;40226;50.874;4.394;2023-12-29T04:39:31;10.10;99.90
23597;DHT22;40226;50.874;4.394;2023-12-29T04:41:57;10.10;99.90
23597;DHT22;40226;50.874;4.394;2023-12-29T04:44:22;10.10;99.90
23597;DHT22;40226;50.874;4.394;2023-12-29T04:46:48;10.10;99.90
23597;DHT22;40226;50.874;4.394;2023-12-29T04:49:14;10.20;99.90
23597;DHT22;40226;50.874;4.394;2023-12-29T04:51:39;10.10;99.90
23597;DHT22;40226;50.874;4.394;2023-12-29T04:54:05;10.20;99.90
23597;DHT22;40226;50.874;4.394;2023-12-29T04:56:30;10.10;99.90
23597;DHT22;40226;50.874;4.394;2023-12-29T04:58:56;10.20;99.90
23597;DHT22;40226;50.874;4.394;2023-12-29T05:01:22;10.10;99.90
23597;DHT22;40226;50.874;4.394;2023-12-29T05:03:47;10.10;99.90
23597;DHT22;40226;50.874;4.394;2023-12-29T05:06:13;10.10;99.90
23597;DHT22;40226;50.874;4.394;2023-12-29T05:08:38;10.10;99.90
23597;DHT22;40226;50.874;4.394;2023-12-29T05:11:04;10.10;99.90
23597;DHT22;40226;50.874;4.394;2023-12-29T05:13:30;10.10;99.90
23597;DHT22;40226;50.874;4.394;2023-12-29T05:15:55;10.20;99.90
23597;DHT22;40226;50.874;4.394;2023-12-29T05:18:21;10.20;99.90
23597;DHT22;40226;50.874;4.394;2023-12-29T05:20:46;10.10;99.90
23597;DHT22;40226;50.874;4.394;2023-12-29T05:23:12;10.20;99.90
23597;DHT22;40226;50.874;4.394;2023-12-29T05:25:38;10.10;99.90
23597;DHT22;40226;50.874;4.394;2023-12-29T05:28:04;10.10;99.90
23597;DHT22;40226;50.874;4.394;2023-12-29T05:30:30;10.20;99.90
23597;DHT22;40226;50.874;4.394;2023-12-29T05:32:57;10.20;99.90
23597;DHT22;40226;50.874;4.394;2023-12-29T05:35:23;10.20;99.90
23597;DHT22;40226;50.874;4.394;2023-12-29T05:37:48;10.10;99.90
23597;DHT22;40226;50.874;4.394;2023-12-29T05:40:15;10.10;99.90
23597;DHT22;40226;50.874;4.394;2023-12-29T05:42:41;10.20;99.90
23597;DHT22;40226;50.874;4.394;2023-12-29T05:45:07;10.10;99.90
23597;DHT22;40226;50.874;4.394;2023-12-29T05:47:32;10.20;99.90
23597;DHT22;40226;50.874;4.394;2023-12-29T05:49:58;10.10;99.90
23597;DHT22;40226;50.874;4.394;2023-12-29T05:52:24;10.20;99.90
23597;DHT22;40226;50.874;4.394;2023-12-29T05:54:50;10.20;99.90
23597;DHT22;40226;50.874;4.394;2023-12-29T05:57:15;10.10;99.90
23597;DHT22;40226;50.874;4.394;2023-12-29T05:59:41;10.10;99.90
23597;DHT22;40226;50.874;4.394;2023-12-29T06:02:07;10.10;99.90
23597;DHT22;40226;50.874;4.394;2023-12-29T06:04:32;10.00;99.90
23597;DHT22;40226;50.874;4.394;2023-12-29T06:06:58;9.90;99.90
23597;DHT22;40226;50.874;4.394;2023-12-29T06:09:24;9.80;99.90
23597;DHT22;40226;50.874;4.394;2023-12-29T06:11:50;9.70;99.90
23597;DHT22;40226;50.874;4.394;2023-12-29T06:14:15;9.60;99.90
23597;DHT22;40226;50.874;4.394;2023-12-29T06:16:41;9.60;99.90
23597;DHT22;40226;50.874;4.394;2023-12-29T06:19:08;9.50;99.90
23597;DHT22;40226;50.874;4.394;2023-12-29T06:21:34;9.40;99.90
23597;DHT22;40226;50.874;4.394;2023-12-29T06:24:05;9.40;99.90
23597;DHT22;40226;50.874;4.394;2023-12-29T06:26:31;9.40;99.90
23597;DHT22;40226;50.874;4.394;2023-12-29T06:28:56;9.40;99.90
23597;DHT22;40226;50.874;4.394;2023-12-29T06:31:22;9.40;99.90
23597;DHT22;40226;50.874;4.394;2023-12-29T06:33:48;9.40;99.90
23597;DHT22;40226;50.874;4.394;2023-12-29T06:36:13;9.40;99.90
23597;DHT22;40226;50.874;4.394;2023-12-29T06:38:39;9.40;99.90
23597;DHT22;40226;50.874;4.394;2023-12-29T06:41:05;9.40;99.90
23597;DHT22;40226;50.874;4.394;2023-12-29T06:43:30;9.40;99.90
23597;DHT22;40226;50.874;4.394;2023-12-29T06:45:56;9.40;99.90
23597;DHT22;40226;50.874;4.394;2023-12-29T06:48:22;9.40;99.90
23597;DHT22;40226;50.874;4.394;2023-12-29T06:50:47;9.40;99.90
23597;DHT22;40226;50.874;4.394;2023-12-29T06:53:13;9.40;99.90
23597;DHT22;40226;50.874;4.394;2023-12-29T06:55:39;9.40;99.90
23597;DHT22;40226;50.874;4.394;2023-12-29T06:58:05;9.40;99.90
23597;DHT22;40226;50.874;4.394;2023-12-29T07:00:30;9.40;99.90
23597;DHT22;40226;50.874;4.394;2023-12-29T07:02:56;9.40;99.90
23597;DHT22;40226;50.874;4.394;2023-12-29T07:05:22;9.40;99.90
23597;DHT22;40226;50.874;4.394;2023-12-29T07:07:47;9.40;99.90
23597;DHT22;40226;50.874;4.394;2023-12-29T07:10:13;9.40;99.90
23597;DHT22;40226;50.874;4.394;2023-12-29T07:12:40;9.40;99.90
23597;DHT22;40226;50.874;4.394;2023-12-29T07:15:06;9.40;99.90
23597;DHT22;40226;50.874;4.394;2023-12-29T07:17:32;9.40;99.90
23597;DHT22;40226;50.874;4.394;2023-12-29T07:19:58;9.40;99.90
23597;DHT22;40226;50.874;4.394;2023-12-29T07:22:23;9.40;99.90
23597;DHT22;40226;50.874;4.394;2023-12-29T07:24:49;9.40;99.90
23597;DHT22;40226;50.874;4.394;2023-12-29T07:27:15;9.40;99.90
23597;DHT22;40226;50.874;4.394;2023-12-29T07:29:41;9.40;99.90
23597;DHT22;40226;50.874;4.394;2023-12-29T07:32:06;9.30;99.90
23597;DHT22;40226;50.874;4.394;2023-12-29T07:34:32;9.30;99.90
23597;DHT22;40226;50.874;4.394;2023-12-29T07:36:58;9.40;99.90
23597;DHT22;40226;50.874;4.394;2023-12-29T07:39:24;9.50;99.90
23597;DHT22;40226;50.874;4.394;2023-12-29T07:41:50;9.40;99.90
23597;DHT22;40226;50.874;4.394;2023-12-29T07:44:19;9.40;99.90
23597;DHT22;40226;50.874;4.394;2023-12-29T07:46:44;9.40;99.90
23597;DHT22;40226;50.874;4.394;2023-12-29T07:49:10;9.40;99.90
23597;DHT22;40226;50.874;4.394;2023-12-29T07:51:42;9.40;99.90
23597;DHT22;40226;50.874;4.394;2023-12-29T07:54:08;9.40;99.90
23597;DHT22;40226;50.874;4.394;2023-12-29T07:56:34;9.40;99.90
23597;DHT22;40226;50.874;4.394;2023-12-29T07:59:02;9.40;99.90
23597;DHT22;40226;50.874;4.394;2023-12-29T08:01:28;9.40;99.90
23597;DHT22;40226;50.874;4.394;2023-12-29T08:03:53;9.40;99.90
23597;DHT22;40226;50.874;4.394;2023-12-29T08:06:19;9.40;99.90
23597;DHT22;40226;50.874;4.394;2023-12-29T08:08:45;9.40;99.90
23597;DHT22;40226;50.874;4.394;2023-12-29T08:11:17;9.40;99.90
23597;DHT22;40226;50.874;4.394;2023-12-29T08:13:44;9.40;99.90
23597;DHT22;40226;50.874;4.394;2023-12-29T08:16:10;9.50;99.90
23597;DHT22;40226;50.874;4.394;2023-12-29T08:18:36;9.40;99.90
23597;DHT22;40226;50.874;4.394;2023-12-29T08:21:02;9.50;99.90
23597;DHT22;40226;50.874;4.394;2023-12-29T08:23:28;9.50;99.90
23597;DHT22;40226;50.874;4.394;2023-12-29T08:25:53;9.50;99.90
23597;DHT22;40226;50.874;4.394;2023-12-29T08:28:21;9.50;99.90
23597;DHT22;40226;50.874;4.394;2023-12-29T08:30:46;9.50;99.90
23597;DHT22;40226;50.874;4.394;2023-12-29T08:33:12;9.50;99.90
23597;DHT22;40226;50.874;4.394;2023-12-29T08:35:42;9.60;99.90
23597;DHT22;40226;50.874;4.394;2023-12-29T08:38:07;9.60;99.90
23597;DHT22;40226;50.874;4.394;2023-12-29T08:40:33;9.60;99.90
23597;DHT22;40226;50.874;4.394;2023-12-29T08:42:59;9.60;99.90
23597;DHT22;40226;50.874;4.394;2023-12-29T08:45:26;9.60;99.90
23597;DHT22;40226;50.874;4.394;2023-12-29T08:47:52;9.60;99.90
23597;DHT22;40226;50.874;4.394;2023-12-29T08:50:18;9.60;99.90
23597;DHT22;40226;50.874;4.394;2023-12-29T08:52:43;9.70;99.90
23597;DHT22;40226;50.874;4.394;2023-12-29T08:55:09;9.80;99.90
23597;DHT22;40226;50.874;4.394;2023-12-29T08:57:35;9.80;99.90
23597;DHT22;40226;50.874;4.394;2023-12-29T09:00:01;9.70;99.90
23597;DHT22;40226;50.874;4.394;2023-12-29T09:02:26;9.70;99.90
23597;DHT22;40226;50.874;4.394;2023-12-29T09:04:52;9.70;99.90
23597;DHT22;40226;50.874;4.394;2023-12-29T09:07:17;9.70;99.90
23597;DHT22;40226;50.874;4.394;2023-12-29T09:09:43;9.70;99.90
23597;DHT22;40226;50.874;4.394;2023-12-29T09:12:08;9.70;99.90
23597;DHT22;40226;50.874;4.394;2023-12-29T09:14:34;9.70;99.90
23597;DHT22;40226;50.874;4.394;2023-12-29T09:17:00;9.80;99.90
23597;DHT22;40226;50.874;4.394;2023-12-29T09:19:26;9.80;99.90
23597;DHT22;40226;50.874;4.394;2023-12-29T09:21:52;9.80;99.90
23597;DHT22;40226;50.874;4.394;2023-12-29T09:24:18;9.90;99.90
23597;DHT22;40226;50.874;4.394;2023-12-29T09:26:43;9.90;99.90
23597;DHT22;40226;50.874;4.394;2023-12-29T09:29:09;9.80;99.90
23597;DHT22;40226;50.874;4.394;2023-12-29T09:31:35;9.80;99.90
23597;DHT22;40226;50.874;4.394;2023-12-29T09:34:02;9.80;99.90
23597;DHT22;40226;50.874;4.394;2023-12-29T09:36:27;9.80;99.90
23597;DHT22;40226;50.874;4.394;2023-12-29T09:38:53;9.90;99.90
23597;DHT22;40226;50.874;4.394;2023-12-29T09:41:20;9.90;99.90
23597;DHT22;40226;50.874;4.394;2023-12-29T09:43:48;10.00;99.90
23597;DHT22;40226;50.874;4.394;2023-12-29T09:46:16;10.10;99.90
23597;DHT22;40226;50.874;4.394;2023-12-29T09:48:45;10.00;99.90
23597;DHT22;40226;50.874;4.394;2023-12-29T09:51:12;10.10;99.90
23597;DHT22;40226;50.874;4.394;2023-12-29T09:53:39;10.10;99.90
23597;DHT22;40226;50.874;4.394;2023-12-29T09:56:08;10.10;99.90
23597;DHT22;40226;50.874;4.394;2023-12-29T09:58:34;10.20;99.90
23597;DHT22;40226;50.874;4.394;2023-12-29T10:01:04;10.10;99.90
23597;DHT22;40226;50.874;4.394;2023-12-29T10:03:30;10.00;99.90
23597;DHT22;40226;50.874;4.394;2023-12-29T10:06:03;9.90;99.90
23597;DHT22;40226;50.874;4.394;2023-12-29T10:08:34;9.90;99.90
23597;DHT22;40226;50.874;4.394;2023-12-29T10:11:00;10.00;99.90
23597;DHT22;40226;50.874;4.394;2023-12-29T10:13:28;9.90;99.90
23597;DHT22;40226;50.874;4.394;2023-12-29T10:16:03;10.00;99.90
23597;DHT22;40226;50.874;4.394;2023-12-29T10:18:37;10.00;99.90
23597;DHT22;40226;50.874;4.394;2023-12-29T10:21:29;10.00;99.90
23597;DHT22;40226;50.874;4.394;2023-12-29T10:24:05;10.10;99.90
23597;DHT22;40226;50.874;4.394;2023-12-29T10:26:34;10.10;99.90
23597;DHT22;40226;50.874;4.394;2023-12-29T10:29:00;10.10;99.90
23597;DHT22;40226;50.874;4.394;2023-12-29T10:31:26;10.10;99.90
23597;DHT22;40226;50.874;4.394;2023-12-29T10:33:52;10.20;99.90
23597;DHT22;40226;50.874;4.394;2023-12-29T10:36:18;10.20;99.90
23597;DHT22;40226;50.874;4.394;2023-12-29T10:38:43;10.30;99.90
23597;DHT22;40226;50.874;4.394;2023-12-29T10:41:17;10.30;99.90
23597;DHT22;40226;50.874;4.394;2023-12-29T10:43:44;10.30;99.90
23597;DHT22;40226;50.874;4.394;2023-12-29T10:46:11;10.30;99.90
23597;DHT22;40226;50.874;4.394;2023-12-29T10:48:37;10.20;99.90
23597;DHT22;40226;50.874;4.394;2023-12-29T10:51:03;10.20;99.90
23597;DHT22;40226;50.874;4.394;2023-12-29T10:53:31;10.20;99.90
23597;DHT22;40226;50.874;4.394;2023-12-29T10:55:56;10.20;99.90
23597;DHT22;40226;50.874;4.394;2023-12-29T10:58:26;10.20;99.90
23597;DHT22;40226;50.874;4.394;2023-12-29T11:00:59;10.20;99.90
23597;DHT22;40226;50.874;4.394;2023-12-29T11:03:27;10.30;99.90
23597;DHT22;40226;50.874;4.394;2023-12-29T11:05:59;10.20;99.90
23597;DHT22;40226;50.874;4.394;2023-12-29T11:08:27;10.30;99.90
23597;DHT22;40226;50.874;4.394;2023-12-29T11:10:54;10.30;99.90
23597;DHT22;40226;50.874;4.394;2023-12-29T11:13:20;10.30;99.90
23597;DHT22;40226;50.874;4.394;2023-12-29T11:15:46;10.30;99.90
23597;DHT22;40226;50.874;4.394;2023-12-29T11:18:16;10.30;99.90
23597;DHT22;40226;50.874;4.394;2023-12-29T11:20:44;10.30;99.90
23597;DHT22;40226;50.874;4.394;2023-12-29T11:23:10;10.40;99.90
23597;DHT22;40226;50.874;4.394;2023-12-29T11:25:39;10.40;99.90
23597;DHT22;40226;50.874;4.394;2023-12-29T11:28:06;10.40;99.90
23597;DHT22;40226;50.874;4.394;2023-12-29T11:30:33;10.40;99.90
23597;DHT22;40226;50.874;4.394;2023-12-29T11:35:43;10.40;99.90
23597;DHT22;40226;50.874;4.394;2023-12-29T11:38:24;10.50;99.90
23597;DHT22;40226;50.874;4.394;2023-12-29T11:43:36;10.50;99.90
23597;DHT22;40226;50.874;4.394;2023-12-29T11:46:03;10.50;99.90
23597;DHT22;40226;50.874;4.394;2023-12-29T11:49:05;10.60;99.90
23597;DHT22;40226;50.874;4.394;2023-12-29T11:51:39;10.50;99.90
23597;DHT22;40226;50.874;4.394;2023-12-29T11:54:06;10.50;99.90
23597;DHT22;40226;50.874;4.394;2023-12-29T11:56:39;10.50;99.90
23597;DHT22;40226;50.874;4.394;2023-12-29T11:59:27;10.50;99.90
23597;DHT22;40226;50.874;4.394;2023-12-29T12:01:57;10.50;99.90
23597;DHT22;40226;50.874;4.394;2023-12-29T12:04:42;10.40;99.90
23597;DHT22;40226;50.874;4.394;2023-12-29T12:12:42;10.30;99.90
23597;DHT22;40226;50.874;4.394;2023-12-29T12:17:52;10.20;99.90
23597;DHT22;40226;50.874;4.394;2023-12-29T12:20:18;10.20;99.90
23597;DHT22;40226;50.874;4.394;2023-12-29T12:22:44;10.20;99.90
23597;DHT22;40226;50.874;4.394;2023-12-29T12:25:12;10.10;99.90
23597;DHT22;40226;50.874;4.394;2023-12-29T12:27:38;10.20;99.90
23597;DHT22;40226;50.874;4.394;2023-12-29T12:30:04;10.30;99.90
23597;DHT22;40226;50.874;4.394;2023-12-29T12:32:30;10.50;99.90
23597;DHT22;40226;50.874;4.394;2023-12-29T12:34:56;10.60;99.90
23597;DHT22;40226;50.874;4.394;2023-12-29T12:37:29;10.60;99.90
23597;DHT22;40226;50.874;4.394;2023-12-29T12:39:55;10.70;99.90
23597;DHT22;40226;50.874;4.394;2023-12-29T12:42:22;10.60;99.90
23597;DHT22;40226;50.874;4.394;2023-12-29T12:45:17;10.80;99.90
23597;DHT22;40226;50.874;4.394;2023-12-29T12:47:50;10.70;99.90
23597;DHT22;40226;50.874;4.394;2023-12-29T12:50:16;10.80;99.90
23597;DHT22;40226;50.874;4.394;2023-12-29T12:52:42;10.90;99.90
23597;DHT22;40226;50.874;4.394;2023-12-29T12:55:08;11.00;99.90
23597;DHT22;40226;50.874;4.394;2023-12-29T12:57:36;11.00;99.90
23597;DHT22;40226;50.874;4.394;2023-12-29T13:00:03;10.30;99.90
23597;DHT22;40226;50.874;4.394;2023-12-29T13:02:30;10.10;99.90
23597;DHT22;40226;50.874;4.394;2023-12-29T13:04:56;10.10;99.90
23597;DHT22;40226;50.874;4.394;2023-12-29T13:07:22;10.10;99.90
23597;DHT22;40226;50.874;4.394;2023-12-29T13:09:48;10.10;99.90
23597;DHT22;40226;50.874;4.394;2023-12-29T13:12:16;10.20;99.90
23597;DHT22;40226;50.874;4.394;2023-12-29T13:14:42;10.20;99.90
23597;DHT22;40226;50.874;4.394;2023-12-29T13:17:09;10.10;99.90
23597;DHT22;40226;50.874;4.394;2023-12-29T13:19:38;10.20;99.90
23597;DHT22;40226;50.874;4.394;2023-12-29T13:22:09;10.20;99.90
23597;DHT22;40226;50.874;4.394;2023-12-29T13:24:35;10.20;99.90
23597;DHT22;40226;50.874;4.394;2023-12-29T13:27:07;10.20;99.90
23597;DHT22;40226;50.874;4.394;2023-12-29T13:29:36;10.20;99.90
23597;DHT22;40226;50.874;4.394;2023-12-29T13:32:19;10.20;99.90
23597;DHT22;40226;50.874;4.394;2023-12-29T13:37:40;10.20;99.90
23597;DHT22;40226;50.874;4.394;2023-12-29T13:42:38;10.20;99.90
23597;DHT22;40226;50.874;4.394;2023-12-29T13:45:08;10.20;99.90
23597;DHT22;40226;50.874;4.394;2023-12-29T13:47:36;10.20;99.90
23597;DHT22;40226;50.874;4.394;2023-12-29T13:50:02;10.20;99.90
23597;DHT22;40226;50.874;4.394;2023-12-29T13:52:28;10.20;99.90
23597;DHT22;40226;50.874;4.394;2023-12-29T13:54:54;10.20;99.90
23597;DHT22;40226;50.874;4.394;2023-12-29T13:57:32;10.10;99.90
23597;DHT22;40226;50.874;4.394;2023-12-29T14:00:14;10.10;99.90
23597;DHT22;40226;50.874;4.394;2023-12-29T14:02:40;10.10;99.90
23597;DHT22;40226;50.874;4.394;2023-12-29T14:07:37;10.10;99.90
23597;DHT22;40226;50.874;4.394;2023-12-29T14:10:10;10.10;99.90
23597;DHT22;40226;50.874;4.394;2023-12-29T14:12:35;10.10;99.90
23597;DHT22;40226;50.874;4.394;2023-12-29T14:15:05;10.10;99.90
23597;DHT22;40226;50.874;4.394;2023-12-29T14:17:30;10.10;99.90
23597;DHT22;40226;50.874;4.394;2023-12-29T14:19:58;10.10;99.90
23597;DHT22;40226;50.874;4.394;2023-12-29T14:22:29;10.20;99.90
23597;DHT22;40226;50.874;4.394;2023-12-29T14:25:05;10.20;99.90
23597;DHT22;40226;50.874;4.394;2023-12-29T14:27:31;10.20;99.90
23597;DHT22;40226;50.874;4.394;2023-12-29T14:29:57;10.20;99.90
23597;DHT22;40226;50.874;4.394;2023-12-29T14:32:23;10.20;99.90
23597;DHT22;40226;50.874;4.394;2023-12-29T14:34:50;10.20;99.90
23597;DHT22;40226;50.874;4.394;2023-12-29T14:37:21;10.30;99.90
23597;DHT22;40226;50.874;4.394;2023-12-29T14:39:50;10.30;99.90
23597;DHT22;40226;50.874;4.394;2023-12-29T14:42:16;10.20;99.90
23597;DHT22;40226;50.874;4.394;2023-12-29T14:44:41;10.20;99.90
23597;DHT22;40226;50.874;4.394;2023-12-29T14:47:07;10.20;99.90
23597;DHT22;40226;50.874;4.394;2023-12-29T14:49:33;10.20;99.90
23597;DHT22;40226;50.874;4.394;2023-12-29T14:51:59;10.30;99.90
23597;DHT22;40226;50.874;4.394;2023-12-29T14:54:24;10.30;99.90
23597;DHT22;40226;50.874;4.394;2023-12-29T14:56:50;10.30;99.90
23597;DHT22;40226;50.874;4.394;2023-12-29T14:59:15;10.20;99.90
23597;DHT22;40226;50.874;4.394;2023-12-29T15:01:41;10.30;99.90
23597;DHT22;40226;50.874;4.394;2023-12-29T15:04:07;10.20;99.90
23597;DHT22;40226;50.874;4.394;2023-12-29T15:06:36;10.20;99.90
23597;DHT22;40226;50.874;4.394;2023-12-29T15:09:02;10.30;99.90
23597;DHT22;40226;50.874;4.394;2023-12-29T15:11:28;10.20;99.90
23597;DHT22;40226;50.874;4.394;2023-12-29T15:13:54;10.20;99.90
23597;DHT22;40226;50.874;4.394;2023-12-29T15:16:19;10.20;99.90
23597;DHT22;40226;50.874;4.394;2023-12-29T15:18:45;10.20;99.90
23597;DHT22;40226;50.874;4.394;2023-12-29T15:21:11;10.20;99.90
23597;DHT22;40226;50.874;4.394;2023-12-29T15:23:36;10.20;99.90
23597;DHT22;40226;50.874;4.394;2023-12-29T15:26:02;10.30;99.90
23597;DHT22;40226;50.874;4.394;2023-12-29T15:28:27;10.30;99.90
23597;DHT22;40226;50.874;4.394;2023-12-29T15:30:53;10.30;99.90
23597;DHT22;40226;50.874;4.394;2023-12-29T15:33:19;10.30;99.90
23597;DHT22;40226;50.874;4.394;2023-12-29T15:35:44;10.30;99.90
23597;DHT22;40226;50.874;4.394;2023-12-29T15:38:10;10.30;99.90
23597;DHT22;40226;50.874;4.394;2023-12-29T15:40:36;10.30;99.90
23597;DHT22;40226;50.874;4.394;2023-12-29T15:43:02;10.30;99.90
23597;DHT22;40226;50.874;4.394;2023-12-29T15:45:33;10.30;99.90
23597;DHT22;40226;50.874;4.394;2023-12-29T15:47:59;10.20;99.90
23597;DHT22;40226;50.874;4.394;2023-12-29T15:50:25;10.30;99.90
23597;DHT22;40226;50.874;4.394;2023-12-29T15:52:50;10.30;99.90
23597;DHT22;40226;50.874;4.394;2023-12-29T15:55:17;10.30;99.90
23597;DHT22;40226;50.874;4.394;2023-12-29T15:57:43;10.30;99.90
23597;DHT22;40226;50.874;4.394;2023-12-29T16:00:09;10.30;99.90